createdAt,value
2022-07-31T00:00:41.339Z,101106.34
2022-07-31T00:03:12.937Z,101114.47
2022-07-31T00:05:44.695Z,101108.34
2022-07-31T00:08:17.131Z,101120.19
2022-07-31T00:10:48.432Z,101112.44
2022-07-31T00:13:19.802Z,101105.44
2022-07-31T00:16:11.141Z,101106.63
2022-07-31T00:18:42.519Z,101103.91
2022-07-31T00:21:14.054Z,101104.88
2022-07-31T00:23:45.644Z,101106.75
2022-07-31T00:26:16.986Z,101099.78
2022-07-31T00:28:48.319Z,101092.78
2022-07-31T00:31:19.712Z,101098.16
2022-07-31T00:33:51.201Z,101090.16
2022-07-31T00:36:29.914Z,101084.88
2022-07-31T00:39:01.760Z,101085.81
2022-07-31T00:41:41.085Z,101069.94
2022-07-31T00:44:14.167Z,101072.56
2022-07-31T00:46:45.520Z,101080.63
2022-07-31T00:49:17.271Z,101079.97
2022-07-31T00:51:48.675Z,101087.00
2022-07-31T00:54:22.509Z,101084.53
2022-07-31T00:56:54.226Z,101074.72
2022-07-31T00:59:27.134Z,101072.09
2022-07-31T01:01:59.298Z,101076.66
2022-07-31T01:04:31.364Z,101066.84
2022-07-31T01:07:04.168Z,101058.00
2022-07-31T01:09:35.725Z,101067.88
2022-07-31T01:12:16.173Z,101054.69
2022-07-31T01:14:53.099Z,101054.91
2022-07-31T01:17:27.627Z,101057.66
2022-07-31T01:19:59.695Z,101056.72
2022-07-31T01:22:56.627Z,101061.22
2022-07-31T01:26:00.813Z,101069.28
2022-07-31T01:29:04.107Z,101067.78
2022-07-31T01:31:43.946Z,101065.22
2022-07-31T01:34:31.834Z,101066.16
2022-07-31T01:37:25.065Z,101065.44
2022-07-31T01:40:08.452Z,101071.81
2022-07-31T01:42:44.068Z,101071.06
2022-07-31T01:45:17.974Z,101062.31
2022-07-31T01:47:50.369Z,101053.53
2022-07-31T01:50:42.646Z,101065.06
2022-07-31T01:53:20.431Z,101056.13
2022-07-31T01:55:56.561Z,101061.56
2022-07-31T01:58:38.590Z,101053.59
2022-07-31T02:01:14.025Z,101061.63
2022-07-31T02:03:46.692Z,101060.81
2022-07-31T02:06:23.359Z,101049.47
2022-07-31T02:08:56.584Z,101052.09
2022-07-31T02:11:28.768Z,101055.66
2022-07-31T02:14:02.585Z,101044.84
2022-07-31T02:16:34.306Z,101053.78
2022-07-31T02:19:08.400Z,101046.47
2022-07-31T02:21:40.309Z,101041.16
2022-07-31T02:24:11.718Z,101035.72
2022-07-31T02:26:43.293Z,101046.28
2022-07-31T02:29:20.156Z,101046.28
2022-07-31T02:32:03.196Z,101037.28
2022-07-31T02:34:36.296Z,101044.41
2022-07-31T02:37:08.375Z,101047.97
2022-07-31T02:39:41.196Z,101043.53
2022-07-31T02:42:12.926Z,101036.53
2022-07-31T02:44:45.387Z,101042.97
2022-07-31T02:47:17.032Z,101026.31
2022-07-31T02:49:49.609Z,101035.25
2022-07-31T02:52:21.279Z,101038.94
2022-07-31T02:54:53.405Z,101022.34
2022-07-31T02:57:24.846Z,101022.22
2022-07-31T02:59:56.481Z,101020.34
2022-07-31T03:02:36.922Z,101023.34
2022-07-31T03:05:09.596Z,101028.28
2022-07-31T03:07:41.007Z,101032.78
2022-07-31T03:10:12.998Z,101023.03
2022-07-31T03:12:47.446Z,101018.59
2022-07-31T03:15:21.917Z,101023.94
2022-07-31T03:17:54.301Z,101017.72
2022-07-31T03:20:26.961Z,101024.88
2022-07-31T03:23:00.283Z,101012.59
2022-07-31T03:25:34.525Z,101019.78
2022-07-31T03:28:05.856Z,101020.78
2022-07-31T03:30:37.401Z,101018.97
2022-07-31T03:33:08.741Z,101027.16
2022-07-31T03:35:44.481Z,101027.28
2022-07-31T03:38:38.634Z,101024.78
2022-07-31T03:41:07.454Z,101024.16
2022-07-31T03:43:47.497Z,101019.22
2022-07-31T03:46:21.901Z,101022.91
2022-07-31T03:48:53.496Z,101021.34
2022-07-31T03:51:25.514Z,101022.44
2022-07-31T03:53:56.963Z,101024.44
2022-07-31T03:56:28.765Z,101013.03
2022-07-31T03:59:00.274Z,101015.00
2022-07-31T04:01:57.948Z,101011.63
2022-07-31T04:04:26.076Z,101011.75
2022-07-31T04:06:57.481Z,101012.81
2022-07-31T04:09:29.265Z,101018.97
2022-07-31T04:12:00.705Z,101034.06
2022-07-31T04:14:32.241Z,101033.06
2022-07-31T04:17:03.754Z,101025.16
2022-07-31T04:19:35.232Z,101024.84
2022-07-31T04:22:07.546Z,101024.91
2022-07-31T04:24:39.160Z,101027.47
2022-07-31T04:27:12.836Z,101030.72
2022-07-31T04:29:45.649Z,101036.66
2022-07-31T04:32:16.959Z,101045.84
2022-07-31T04:34:48.362Z,101045.25
2022-07-31T04:37:19.715Z,101043.81
2022-07-31T04:39:51.033Z,101043.28
2022-07-31T04:42:22.443Z,101037.53
2022-07-31T04:44:54.141Z,101038.69
2022-07-31T04:47:25.495Z,101040.94
2022-07-31T04:49:56.816Z,101034.34
2022-07-31T04:52:28.398Z,101040.25
2022-07-31T04:54:59.707Z,101035.44
2022-07-31T04:57:31.150Z,101042.19
2022-07-31T05:00:03.240Z,101044.56
2022-07-31T05:02:34.700Z,101055.63
2022-07-31T05:05:06.493Z,101047.38
2022-07-31T05:07:38.729Z,101036.63
2022-07-31T05:10:10.163Z,101048.69
2022-07-31T05:12:41.458Z,101046.38
2022-07-31T05:15:14.061Z,101050.22
2022-07-31T05:17:45.349Z,101039.75
2022-07-31T05:20:16.673Z,101033.88
2022-07-31T05:22:47.957Z,101036.19
2022-07-31T05:25:19.263Z,101038.38
2022-07-31T05:27:50.583Z,101035.03
2022-07-31T05:30:30.112Z,101031.50
2022-07-31T05:33:02.052Z,101021.09
2022-07-31T05:35:33.445Z,101028.56
2022-07-31T05:38:04.859Z,101027.44
2022-07-31T05:40:43.269Z,101024.28
2022-07-31T05:43:14.624Z,101014.53
2022-07-31T05:45:49.356Z,101027.22
2022-07-31T05:48:21.258Z,101024.97
2022-07-31T05:50:52.759Z,101024.66
2022-07-31T05:53:24.174Z,101033.38
2022-07-31T05:55:55.463Z,101033.25
2022-07-31T05:58:26.754Z,101027.84
2022-07-31T06:00:58.342Z,101024.22
2022-07-31T06:03:30.017Z,101022.31
2022-07-31T06:06:02.898Z,101012.94
2022-07-31T06:08:34.204Z,101033.69
2022-07-31T06:11:05.894Z,101018.75
2022-07-31T06:13:37.286Z,101020.72
2022-07-31T06:16:12.815Z,101016.47
2022-07-31T06:18:44.108Z,101031.28
2022-07-31T06:23:45.755Z,101032.19
2022-07-31T06:26:17.155Z,101032.81
2022-07-31T06:28:49.726Z,101040.91
2022-07-31T06:31:22.164Z,101042.72
2022-07-31T06:33:53.494Z,101039.47
2022-07-31T06:36:24.779Z,101045.41
2022-07-31T06:38:56.158Z,101044.69
2022-07-31T06:41:44.312Z,101044.59
2022-07-31T06:44:17.061Z,101038.94
2022-07-31T06:46:49.606Z,101034.88
2022-07-31T06:49:21.036Z,101042.06
2022-07-31T06:51:52.705Z,101042.53
2022-07-31T06:54:26.786Z,101043.25
2022-07-31T06:56:58.315Z,101034.97
2022-07-31T06:59:39.965Z,101033.63
2022-07-31T07:02:12.108Z,101021.06
2022-07-31T07:04:57.822Z,101022.13
2022-07-31T07:07:36.512Z,101003.84
2022-07-31T07:10:08.023Z,101021.91
2022-07-31T07:12:39.329Z,101029.41
2022-07-31T07:15:10.915Z,101022.72
2022-07-31T07:17:42.210Z,101032.28
2022-07-31T07:20:13.775Z,101034.13
2022-07-31T07:22:45.084Z,101030.44
2022-07-31T07:25:16.490Z,101022.22
2022-07-31T07:27:47.844Z,101015.47
2022-07-31T07:30:19.384Z,101014.00
2022-07-31T07:32:50.731Z,101008.56
2022-07-31T07:35:22.061Z,101005.47
2022-07-31T07:37:54.050Z,101011.56
2022-07-31T07:40:26.775Z,101021.28
2022-07-31T07:43:02.823Z,101020.03
2022-07-31T07:45:34.620Z,101022.13
2022-07-31T07:48:07.542Z,101009.91
2022-07-31T07:50:39.192Z,101018.59
2022-07-31T07:53:12.854Z,101014.97
2022-07-31T07:55:44.185Z,101011.38
2022-07-31T07:58:16.054Z,101000.84
2022-07-31T08:00:47.383Z,101003.66
2022-07-31T08:03:49.879Z,101008.41
2022-07-31T08:06:10.145Z,101000.28
2022-07-31T08:08:41.546Z,101010.34
2022-07-31T08:11:16.979Z,101014.22
2022-07-31T08:13:50.873Z,101008.34
2022-07-31T08:16:22.619Z,101003.47
2022-07-31T08:18:54.759Z,101012.28
2022-07-31T08:21:26.572Z,101007.13
2022-07-31T08:23:57.891Z,101010.88
2022-07-31T08:26:52.069Z,101012.38
2022-07-31T08:29:26.541Z,100996.44
2022-07-31T08:32:00.173Z,100992.59
2022-07-31T08:34:32.246Z,100999.63
2022-07-31T08:37:50.968Z,100988.13
2022-07-31T08:39:57.772Z,100993.72
2022-07-31T08:42:29.104Z,100996.13
2022-07-31T08:45:00.418Z,100996.03
2022-07-31T08:47:33.275Z,100995.41
2022-07-31T08:50:05.594Z,100988.25
2022-07-31T08:52:37.309Z,100987.22
2022-07-31T08:55:09.246Z,100976.44
2022-07-31T08:57:41.405Z,100967.41
2022-07-31T09:00:17.380Z,100970.09
2022-07-31T09:02:49.829Z,100974.16
2022-07-31T09:05:21.712Z,100969.31
2022-07-31T09:07:53.102Z,100980.22
2022-07-31T09:10:26.722Z,100966.31
2022-07-31T09:12:58.107Z,100975.16
2022-07-31T09:15:31.384Z,100970.25
2022-07-31T09:18:02.714Z,100964.94
2022-07-31T09:20:34.047Z,100974.75
2022-07-31T09:23:10.016Z,100963.81
2022-07-31T09:25:51.706Z,100967.13
2022-07-31T09:28:35.659Z,100964.72
2022-07-31T09:31:09.318Z,100967.19
2022-07-31T09:33:46.121Z,100958.59
2022-07-31T09:36:22.955Z,100959.78
2022-07-31T09:38:56.330Z,100952.81
2022-07-31T09:41:55.961Z,100957.22
2022-07-31T09:44:18.968Z,100954.97
2022-07-31T09:46:56.746Z,100947.78
2022-07-31T09:49:32.734Z,100933.69
2022-07-31T09:52:04.360Z,100938.56
2022-07-31T09:54:35.659Z,100938.97
2022-07-31T09:57:12.333Z,100930.78
2022-07-31T09:59:44.320Z,100937.09
2022-07-31T10:02:19.918Z,100920.88
2022-07-31T10:04:54.162Z,100911.81
2022-07-31T10:07:32.463Z,100914.72
2022-07-31T10:10:07.002Z,100909.78
2022-07-31T10:12:42.371Z,100914.16
2022-07-31T10:15:17.200Z,100909.63
2022-07-31T10:17:51.532Z,100902.56
2022-07-31T10:20:24.869Z,100909.69
2022-07-31T10:23:01.513Z,100900.78
2022-07-31T10:25:35.840Z,100896.41
2022-07-31T10:28:07.697Z,100902.19
2022-07-31T10:30:39.465Z,100898.78
2022-07-31T10:33:34.111Z,100894.16
2022-07-31T10:36:16.729Z,100883.78
2022-07-31T10:38:58.580Z,100881.00
2022-07-31T10:41:47.818Z,100887.31
2022-07-31T10:44:38.651Z,100879.03
2022-07-31T10:47:14.865Z,100870.25
2022-07-31T10:49:49.025Z,100872.06
2022-07-31T10:52:31.056Z,100861.09
2022-07-31T10:55:14.677Z,100864.94
2022-07-31T10:57:57.288Z,100869.63
2022-07-31T11:00:30.061Z,100865.66
2022-07-31T11:03:13.397Z,100862.75
2022-07-31T11:06:01.587Z,100860.25
2022-07-31T11:08:52.181Z,100855.84
2022-07-31T11:11:37.693Z,100851.03
2022-07-31T11:14:09.320Z,100844.75
2022-07-31T11:16:53.167Z,100844.44
2022-07-31T11:19:24.839Z,100852.66
2022-07-31T11:21:57.999Z,100842.66
2022-07-31T11:24:29.350Z,100848.34
2022-07-31T11:27:00.664Z,100832.53
2022-07-31T11:29:58.991Z,100820.34
2022-07-31T11:32:26.567Z,100829.56
2022-07-31T11:34:58.184Z,100827.56
2022-07-31T11:37:56.226Z,100825.38
2022-07-31T11:40:26.520Z,100823.31
2022-07-31T11:45:54.895Z,100811.88
2022-07-31T11:48:27.931Z,100815.22
2022-07-31T11:51:00.992Z,100808.53
2022-07-31T11:53:40.836Z,100809.47
2022-07-31T11:56:12.434Z,100811.97
2022-07-31T11:58:48.733Z,100804.03
2022-07-31T12:01:27.091Z,100804.38
2022-07-31T12:04:07.532Z,100812.25
2022-07-31T12:06:40.686Z,100801.63
2022-07-31T12:10:02.589Z,100791.63
2022-07-31T12:12:04.538Z,100785.88
2022-07-31T12:14:38.481Z,100784.88
2022-07-31T12:17:20.030Z,100785.47
2022-07-31T12:19:56.105Z,100789.94
2022-07-31T12:22:29.227Z,100780.47
2022-07-31T12:25:03.152Z,100775.00
2022-07-31T12:27:37.416Z,100767.78
2022-07-31T12:30:16.633Z,100769.78
2022-07-31T12:32:48.190Z,100758.97
2022-07-31T12:35:19.536Z,100768.59
2022-07-31T12:37:52.733Z,100767.31
2022-07-31T12:40:26.106Z,100754.81
2022-07-31T12:42:59.551Z,100758.28
2022-07-31T12:45:36.246Z,100744.47
2022-07-31T12:48:07.697Z,100753.81
2022-07-31T12:50:39.058Z,100751.06
2022-07-31T12:53:10.498Z,100750.50
2022-07-31T12:55:41.805Z,100751.69
2022-07-31T12:58:13.167Z,100750.56
2022-07-31T13:00:44.466Z,100745.00
2022-07-31T13:03:16.034Z,100741.00
2022-07-31T13:05:51.879Z,100731.16
2022-07-31T13:08:23.598Z,100728.28
2022-07-31T13:10:54.898Z,100733.75
2022-07-31T13:13:26.288Z,100724.81
2022-07-31T13:15:57.593Z,100724.88
2022-07-31T13:18:29.982Z,100725.72
2022-07-31T13:21:02.108Z,100711.50
2022-07-31T13:23:33.489Z,100721.16
2022-07-31T13:26:05.008Z,100715.13
2022-07-31T13:28:36.293Z,100716.34
2022-07-31T13:31:07.684Z,100707.16
2022-07-31T13:33:38.984Z,100700.81
2022-07-31T13:36:10.328Z,100703.69
2022-07-31T13:38:41.762Z,100695.50
2022-07-31T13:41:27.817Z,100695.31
2022-07-31T13:44:00.458Z,100686.31
2022-07-31T13:46:32.151Z,100685.66
2022-07-31T13:49:08.367Z,100684.06
2022-07-31T13:51:39.989Z,100683.53
2022-07-31T13:54:11.516Z,100687.72
2022-07-31T13:56:43.751Z,100679.13
2022-07-31T13:59:16.124Z,100684.59
2022-07-31T14:02:03.063Z,100667.75
2022-07-31T14:04:38.892Z,100682.16
2022-07-31T14:07:12.819Z,100685.38
2022-07-31T14:09:47.111Z,100678.53
2022-07-31T14:12:26.237Z,100692.31
2022-07-31T14:14:57.622Z,100682.97
2022-07-31T14:17:28.907Z,100689.06
2022-07-31T14:20:00.280Z,100695.41
2022-07-31T14:22:32.546Z,100691.47
2022-07-31T14:25:04.193Z,100698.19
2022-07-31T14:27:35.917Z,100701.25
2022-07-31T14:30:09.127Z,100692.91
2022-07-31T14:32:40.750Z,100704.88
2022-07-31T14:35:12.380Z,100703.63
2022-07-31T14:37:43.733Z,100707.72
2022-07-31T14:40:16.299Z,100698.72
2022-07-31T14:42:47.622Z,100699.25
2022-07-31T14:45:19.000Z,100693.41
2022-07-31T14:47:50.329Z,100701.34
2022-07-31T14:50:23.202Z,100691.94
2022-07-31T14:52:56.150Z,100691.81
2022-07-31T14:55:28.972Z,100694.94
2022-07-31T14:58:00.277Z,100703.63
2022-07-31T15:00:31.565Z,100703.75
2022-07-31T15:03:02.942Z,100704.72
2022-07-31T15:06:51.003Z,100688.97
2022-07-31T15:08:26.588Z,100697.16
2022-07-31T15:10:57.960Z,100699.25
2022-07-31T15:13:29.250Z,100698.94
2022-07-31T15:16:00.638Z,100688.41
2022-07-31T15:18:31.966Z,100702.91
2022-07-31T15:21:03.293Z,100686.22
2022-07-31T15:23:35.990Z,100694.69
2022-07-31T15:26:07.417Z,100697.72
2022-07-31T15:28:38.766Z,100696.41
2022-07-31T15:31:10.088Z,100698.66
2022-07-31T15:33:41.546Z,100706.13
2022-07-31T15:36:15.277Z,100702.91
2022-07-31T15:38:46.742Z,100706.13
2022-07-31T15:41:19.032Z,100704.41
2022-07-31T15:43:50.549Z,100706.78
2022-07-31T15:46:21.909Z,100698.09
2022-07-31T15:48:53.241Z,100699.06
2022-07-31T15:51:24.553Z,100697.16
2022-07-31T15:53:56.076Z,100690.94
2022-07-31T15:56:27.440Z,100691.25
2022-07-31T15:59:00.128Z,100707.81
2022-07-31T16:01:31.501Z,100709.00
2022-07-31T16:04:03.072Z,100699.47
2022-07-31T16:06:50.507Z,100699.44
2022-07-31T16:09:23.935Z,100696.63
2022-07-31T16:12:02.950Z,100702.69
2022-07-31T16:14:36.595Z,100709.72
2022-07-31T16:17:08.173Z,100705.94
2022-07-31T16:19:40.263Z,100698.94
2022-07-31T16:22:12.130Z,100702.41
2022-07-31T16:24:43.554Z,100695.94
2022-07-31T16:27:14.851Z,100693.63
2022-07-31T16:29:59.487Z,100690.72
2022-07-31T16:32:33.414Z,100685.72
2022-07-31T16:35:06.242Z,100681.28
2022-07-31T16:37:52.256Z,100683.13
2022-07-31T16:40:30.683Z,100671.03
2022-07-31T16:43:50.021Z,100677.09
2022-07-31T16:45:56.805Z,100685.66
2022-07-31T16:48:28.108Z,100676.56
2022-07-31T16:51:00.585Z,100674.63
2022-07-31T16:54:11.672Z,100681.91
2022-07-31T16:56:23.397Z,100684.50
2022-07-31T16:58:55.979Z,100673.13
2022-07-31T17:01:58.550Z,100676.22
2022-07-31T17:04:18.646Z,100673.97
2022-07-31T17:06:50.025Z,100663.75
2022-07-31T17:09:21.704Z,100669.13
2022-07-31T17:11:55.794Z,100661.81
2022-07-31T17:14:27.956Z,100653.91
2022-07-31T17:16:59.361Z,100665.38
2022-07-31T17:19:42.828Z,100650.63
2022-07-31T17:22:18.742Z,100657.75
2022-07-31T17:24:50.656Z,100660.03
2022-07-31T17:27:22.545Z,100652.50
2022-07-31T17:29:55.007Z,100654.13
2022-07-31T17:32:26.843Z,100656.34
2022-07-31T17:34:58.157Z,100650.19
2022-07-31T17:37:30.491Z,100651.03
2022-07-31T17:40:03.575Z,100649.91
2022-07-31T17:42:34.897Z,100665.50
2022-07-31T17:45:06.811Z,100653.53
2022-07-31T17:47:38.451Z,100651.28
2022-07-31T17:50:10.126Z,100657.53
2022-07-31T17:52:41.411Z,100659.56
2022-07-31T17:55:12.765Z,100658.78
2022-07-31T17:57:44.046Z,100656.19
2022-07-31T18:00:15.650Z,100656.97
2022-07-31T18:02:46.985Z,100653.56
2022-07-31T18:05:18.461Z,100652.78
2022-07-31T18:07:51.756Z,100650.28
2022-07-31T18:10:32.661Z,100639.06
2022-07-31T18:13:15.078Z,100656.97
2022-07-31T18:15:46.401Z,100655.50
2022-07-31T18:18:17.819Z,100661.06
2022-07-31T18:20:49.128Z,100653.44
2022-07-31T18:23:22.887Z,100651.69
2022-07-31T18:25:58.310Z,100651.88
2022-07-31T18:28:31.497Z,100647.63
2022-07-31T18:31:02.813Z,100651.25
2022-07-31T18:33:34.400Z,100643.34
2022-07-31T18:36:05.978Z,100645.97
2022-07-31T18:38:38.069Z,100636.41
2022-07-31T18:41:09.448Z,100643.63
2022-07-31T18:43:40.774Z,100638.59
2022-07-31T18:46:12.169Z,100638.69
2022-07-31T18:48:43.470Z,100639.94
2022-07-31T18:51:14.852Z,100643.59
2022-07-31T18:53:46.186Z,100638.88
2022-07-31T18:56:17.713Z,100645.03
2022-07-31T18:58:49.005Z,100643.28
2022-07-31T19:01:21.006Z,100641.28
2022-07-31T19:03:52.941Z,100636.94
2022-07-31T19:06:24.295Z,100642.16
2022-07-31T19:08:56.606Z,100641.28
2022-07-31T19:11:28.764Z,100643.13
2022-07-31T19:14:00.101Z,100641.28
2022-07-31T19:16:31.405Z,100632.44
2022-07-31T19:19:03.881Z,100636.84
2022-07-31T19:21:42.362Z,100636.00
2022-07-31T19:24:14.528Z,100637.81
2022-07-31T19:26:45.929Z,100632.63
2022-07-31T19:29:18.673Z,100629.34
2022-07-31T19:31:50.163Z,100630.47
2022-07-31T19:34:21.603Z,100636.19
2022-07-31T19:36:52.918Z,100631.94
2022-07-31T19:39:24.252Z,100625.78
2022-07-31T19:42:21.529Z,100626.72
2022-07-31T19:44:46.960Z,100627.97
2022-07-31T19:47:18.307Z,100629.97
2022-07-31T19:49:51.274Z,100633.53
2022-07-31T19:52:22.679Z,100628.16
2022-07-31T19:54:54.013Z,100631.47
2022-07-31T19:57:25.339Z,100625.03
2022-07-31T19:59:56.655Z,100622.22
2022-07-31T20:02:27.993Z,100613.41
2022-07-31T20:05:00.168Z,100626.63
2022-07-31T20:07:33.144Z,100620.31
2022-07-31T20:10:09.728Z,100624.66
2022-07-31T20:12:41.325Z,100624.47
2022-07-31T20:15:12.810Z,100612.13
2022-07-31T20:17:44.228Z,100628.13
2022-07-31T20:20:16.321Z,100627.25
2022-07-31T20:22:47.733Z,100626.56
2022-07-31T20:25:20.266Z,100626.56
2022-07-31T20:27:52.063Z,100623.84
2022-07-31T20:30:25.002Z,100608.66
2022-07-31T20:32:56.492Z,100611.44
2022-07-31T20:35:33.093Z,100621.16
2022-07-31T20:38:24.248Z,100609.44
2022-07-31T20:40:56.166Z,100618.38
2022-07-31T20:43:29.496Z,100610.63
2022-07-31T20:46:00.827Z,100606.94
2022-07-31T20:48:32.740Z,100604.16
2022-07-31T20:51:05.518Z,100604.94
2022-07-31T20:53:37.398Z,100608.41
2022-07-31T20:56:09.049Z,100603.81
2022-07-31T20:58:41.313Z,100597.56
2022-07-31T21:01:13.117Z,100600.16
2022-07-31T21:03:44.433Z,100590.59
2022-07-31T21:06:16.442Z,100577.91
2022-07-31T21:08:48.323Z,100592.06
2022-07-31T21:11:20.364Z,100586.69
2022-07-31T21:13:51.707Z,100596.59
2022-07-31T21:16:24.481Z,100585.03
2022-07-31T21:18:55.836Z,100588.00
2022-07-31T21:21:27.241Z,100578.28
2022-07-31T21:24:00.839Z,100584.84
2022-07-31T21:26:33.653Z,100578.75
2022-07-31T21:29:09.000Z,100582.41
2022-07-31T21:31:49.179Z,100576.22
2022-07-31T21:34:21.747Z,100578.16
2022-07-31T21:36:53.584Z,100583.78
2022-07-31T21:39:25.789Z,100580.22
2022-07-31T21:41:57.357Z,100575.19
2022-07-31T21:44:29.034Z,100581.34
2022-07-31T21:47:03.130Z,100578.66
2022-07-31T21:49:35.426Z,100576.75
2022-07-31T21:52:07.676Z,100579.44
2022-07-31T21:54:39.743Z,100591.94
2022-07-31T21:57:11.037Z,100587.78
2022-07-31T21:59:42.342Z,100584.13
2022-07-31T22:02:14.243Z,100586.72
2022-07-31T22:05:04.748Z,100582.22
2022-07-31T22:07:46.426Z,100579.34
2022-07-31T22:10:21.055Z,100581.88
2022-07-31T22:12:52.864Z,100583.69
2022-07-31T22:15:24.208Z,100576.75
2022-07-31T22:17:55.546Z,100585.34
2022-07-31T22:20:26.962Z,100575.63
2022-07-31T22:22:58.531Z,100583.34
2022-07-31T22:25:30.162Z,100575.28
2022-07-31T22:28:03.117Z,100569.13
2022-07-31T22:30:34.641Z,100590.31
2022-07-31T22:33:06.128Z,100584.13
2022-07-31T22:35:37.745Z,100588.31
2022-07-31T22:38:11.001Z,100590.22
2022-07-31T22:40:43.979Z,100588.47
2022-07-31T22:44:10.199Z,100583.19
2022-07-31T22:46:08.256Z,100595.59
2022-07-31T22:48:40.696Z,100579.78
2022-07-31T22:51:15.203Z,100593.69
2022-07-31T22:53:49.023Z,100595.50
2022-07-31T22:56:20.600Z,100590.31
2022-07-31T22:58:51.952Z,100591.44
2022-07-31T23:01:23.267Z,100586.22
2022-07-31T23:03:54.759Z,100583.00
2022-07-31T23:06:32.345Z,100582.84
2022-07-31T23:09:04.085Z,100585.19
2022-07-31T23:11:35.499Z,100587.97
2022-07-31T23:14:06.826Z,100588.91
2022-07-31T23:16:38.151Z,100592.63
2022-07-31T23:19:09.763Z,100587.25
2022-07-31T23:21:41.212Z,100582.75
2022-07-31T23:24:12.636Z,100586.31
2022-07-31T23:26:43.995Z,100595.06
2022-07-31T23:29:15.362Z,100589.69
2022-07-31T23:31:46.669Z,100591.25
2022-07-31T23:34:18.047Z,100589.34
2022-07-31T23:36:49.355Z,100600.13
2022-07-31T23:39:22.879Z,100601.06
2022-07-31T23:42:12.681Z,100602.81
2022-07-31T23:44:46.316Z,100603.59
2022-07-31T23:47:18.036Z,100598.84
2022-07-31T23:49:49.346Z,100597.16
2022-07-31T23:52:20.645Z,100599.00
2022-07-31T23:54:51.937Z,100601.53
2022-07-31T23:57:23.337Z,100606.84
2022-07-31T23:59:54.654Z,100604.06
